• Join FlightAware (Why Join?)
  • Login
  • US Flag 
02:56PM EDT


 

Airport Tracker/Info


-or-


 

Live Flight TrackerFlight Track Log ✈ UCA3598 ✈ 15-Nov-2013 ✈ KIAD - KBGM

Flight Track Log - Related Links

Times and Time Zones

All times are in EST time to prevent confusion due to time zone crossing. See the UCA3598 flight status page for this flight to view local times or setup timezone preferences in your user account.

Time Position Orientation Groundspeed Altitude Reporting Facility
EST Latitude Longitude Course Direction KTS MPH feet Rate Location/Type
10:32PM 38.9667 -77.5000 North 144 166 2,100  Level Potomac TRACON
10:35PM 39.0383 -77.5958 314° West 158 182 6,400 1,740 Climbing Washington Center
10:36PM 39.0692 -77.6261 323° Northwest 158 182 8,200 1,500 Climbing Washington Center
10:37PM 39.1233 -77.6358 352° North 163 188 9,400 1,200 Climbing Washington Center
10:38PM 39.2967 -77.3085 North  Level Estimated
10:38PM 39.1861 -77.6106 17° North 183 211 10,600  Level Washington Center
10:39PM 39.2511 -77.5883 15° North 218 251 11,600 900 Climbing Washington Center
10:40PM 39.3244 -77.5661 13° North 246 283 12,500 960 Climbing Washington Center
10:41PM 39.3978 -77.5414 15° North 258 297 13,600 1,320 Climbing Washington Center
10:42PM 39.4669 -77.5164 16° North 264 304 15,200 1,320 Climbing Washington Center
10:43PM 39.5700 -77.4831 14° North 260 299 17,000 1,080 Climbing New York Center
10:44PM 39.6447 -77.4550 16° North 250 288 18,000 900 Climbing New York Center
10:45PM 39.7078 -77.4447 North 250 288 18,800 480 Climbing New York Center
10:46PM 39.7917 -77.3986 23° Northeast 264 304 19,000 60 Climbing New York Center
10:47PM 39.8669 -77.3597 22° Northeast 308 354 19,000  Level New York Center
10:48PM 39.9592 -77.3142 21° North 325 374 19,000  Level New York Center
10:49PM 40.0364 -77.2756 21° North 325 374 19,000  Level New York Center
10:50PM 40.1286 -77.2269 22° Northeast 320 368 19,000  Level New York Center
10:51PM 40.2122 -77.1831 22° Northeast 320 368 19,000  Level New York Center
10:52PM 40.2981 -77.1394 21° North 320 368 19,000  Level New York Center
10:53PM 40.3839 -77.0956 21° North 320 368 19,000  Level New York Center
10:54PM 40.4675 -77.0514 22° Northeast 320 368 19,000  Level New York Center
10:55PM 40.5533 -77.0072 21° North 320 368 19,000  Level New York Center
10:56PM 40.6389 -76.9631 21° North 320 368 19,000  Level New York Center
10:57PM 40.7225 -76.9186 22° Northeast 320 368 19,000  Level New York Center
10:58PM 40.8103 -76.8717 22° Northeast 325 374 19,000  Level New York Center
10:59PM 40.8917 -76.8294 21° North 320 368 19,000  Level New York Center
11:00PM 40.9669 -76.7867 23° Northeast 320 368 19,000 -300 Level New York Center
11:01PM 41.0547 -76.7394 22° Northeast 320 368 18,500 -600 Descending New York Center
11:02PM 41.1447 -76.6894 23° Northeast 325 374 17,900 -780 Descending New York Center
11:03PM 41.2433 -76.6344 23° Northeast 340 391 17,000 -900 Descending New York Center
11:04PM 41.3244 -76.5947 20° North 345 397 16,200 -780 Descending New York Center
11:05PM 41.4122 -76.5469 22° Northeast 340 391 15,500 -600 Descending New York Center
11:06PM 41.5061 -76.4969 22° Northeast 340 391 15,000 -420 Descending New York Center
11:07PM 41.5897 -76.4483 23° Northeast 334 384 14,700 -780 Descending New York Center
11:08PM 41.6731 -76.4028 22° Northeast 323 372 13,500 -1,380 Descending New York Center
11:09PM 41.7475 -76.3703 18° North 323 372 12,000 -1,500 Descending New York Center
11:10PM 41.8306 -76.3325 19° North 313 360 10,500 -1,800 Descending New York Center
11:11PM 41.9178 -76.2953 18° North 303 349 8,500 -1,860 Descending New York Center
11:12PM 41.9861 -76.2592 21° North 274 315 6,800 -1,560 Descending New York Center
11:13PM 42.0344 -76.2044 40° Northeast 250 288 5,400 -1,080 Descending New York Center
11:14PM 42.0994 -76.1456 34° Northeast 250 288 4,700 -840 Descending New York Center
11:15PM 42.1550 -76.1136 23° Northeast 237 273 3,800 -660 Descending New York Center
11:16PM 42.2081 -76.0928 16° North 216 249 3,400 -360 Descending New York Center
11:17PM 42.2489 -76.0597 31° Northeast 193 222 3,100 -600 Descending New York Center
11:18PM 42.2408 -76.0086 102° East 121 139 2,300 -420 Descending New York Center
11:19PM 42.2572 -75.9708 60° Northeast 121 139 2,300  Level New York Center
11:23PM 42.2084 -75.9796 North  Level Estimated
11:30PM 42.2084 -75.9796 North  Level Estimated
11:31PM 42.2084 -75.9796 North  Level Estimated
11:32PM 42.2084 -75.9796 North  Level Estimated
11:33PM 42.2084 -75.9796 North  Level Estimated
11:34PM 42.2084 -75.9796 North  Level Estimated
11:35PM 42.2084 -75.9796 North  Level Estimated
11:36PM 42.2084 -75.9796 North  Level Estimated
11:37PM 42.2084 -75.9796 North  Level Estimated
11:38PM 42.2084 -75.9796 North  Level Estimated
11:39PM 42.2084 -75.9796 North  Level Estimated
11:40PM 42.2084 -75.9796 North  Level Estimated